sensor_id;sensor_type;location;lat;lon;timestamp;pressure;altitude;pressure_sealevel;temperature;humidity
44144;BME280;71749;51.920;4.492;2024-02-26T00:00:24;66861.75;;;9.03;100.00
44144;BME280;71749;51.920;4.492;2024-02-26T00:03:12;66856.19;;;8.98;99.63
44144;BME280;71749;51.920;4.492;2024-02-26T00:05:57;66818.84;;;8.64;99.40
44144;BME280;71749;51.920;4.492;2024-02-26T00:08:43;66814.97;;;8.60;99.98
44144;BME280;71749;51.920;4.492;2024-02-26T00:11:28;66778.22;;;8.27;100.00
44144;BME280;71749;51.920;4.492;2024-02-26T00:14:15;66764.09;;;8.12;100.00
44144;BME280;71749;51.920;4.492;2024-02-26T00:17:00;66786.00;;;8.34;100.00
44144;BME280;71749;51.920;4.492;2024-02-26T00:19:47;66783.78;;;8.32;100.00
44144;BME280;71749;51.920;4.492;2024-02-26T00:22:32;66798.44;;;8.48;100.00
44144;BME280;71749;51.920;4.492;2024-02-26T00:25:18;66796.22;;;8.46;100.00
44144;BME280;71749;51.920;4.492;2024-02-26T00:28:04;66776.34;;;8.23;100.00
44144;BME280;71749;51.920;4.492;2024-02-26T00:30:52;66768.91;;;8.21;100.00
44144;BME280;71749;51.920;4.492;2024-02-26T00:33:41;66747.03;;;7.99;100.00
44144;BME280;71749;51.920;4.492;2024-02-26T00:36:27;66786.19;;;8.37;100.00
44144;BME280;71749;51.920;4.492;2024-02-26T00:39:12;66724.03;;;7.75;100.00
44144;BME280;71749;51.920;4.492;2024-02-26T00:41:58;66690.84;;;7.48;100.00
44144;BME280;71749;51.920;4.492;2024-02-26T00:44:44;66759.09;;;8.07;100.00
44144;BME280;71749;51.920;4.492;2024-02-26T00:47:29;66804.22;;;8.48;100.00
44144;BME280;71749;51.920;4.492;2024-02-26T00:50:15;66814.41;;;8.60;100.00
44144;BME280;71749;51.920;4.492;2024-02-26T00:53:01;66804.78;;;8.49;100.00
44144;BME280;71749;51.920;4.492;2024-02-26T00:55:46;66791.97;;;8.37;99.74
44144;BME280;71749;51.920;4.492;2024-02-26T00:58:32;66765.97;;;8.16;100.00
44144;BME280;71749;51.920;4.492;2024-02-26T01:01:21;66749.63;;;7.99;100.00
44144;BME280;71749;51.920;4.492;2024-02-26T01:04:06;66757.06;;;8.08;100.00
44144;BME280;71749;51.920;4.492;2024-02-26T01:06:52;66751.66;;;8.05;100.00
44144;BME280;71749;51.920;4.492;2024-02-26T01:09:38;66794.16;;;8.46;100.00
44144;BME280;71749;51.920;4.492;2024-02-26T01:12:24;66743.31;;;7.98;99.45
44144;BME280;71749;51.920;4.492;2024-02-26T01:15:09;66754.44;;;8.08;100.00
44144;BME280;71749;51.920;4.492;2024-02-26T01:17:56;66779.69;;;8.26;100.00
44144;BME280;71749;51.920;4.492;2024-02-26T01:20:43;66781.56;;;8.30;100.00
44144;BME280;71749;51.920;4.492;2024-02-26T01:23:29;66790.06;;;8.40;100.00
44144;BME280;71749;51.920;4.492;2024-02-26T01:26:16;66754.81;;;8.06;100.00
44144;BME280;71749;51.920;4.492;2024-02-26T01:29:03;66791.19;;;8.41;99.97
44144;BME280;71749;51.920;4.492;2024-02-26T01:31:48;66760.94;;;8.11;99.73
44144;BME280;71749;51.920;4.492;2024-02-26T01:34:34;66751.47;;;8.10;100.00
44144;BME280;71749;51.920;4.492;2024-02-26T01:37:19;66705.31;;;7.61;100.00
44144;BME280;71749;51.920;4.492;2024-02-26T01:40:05;66750.00;;;8.04;100.00
44144;BME280;71749;51.920;4.492;2024-02-26T01:42:52;66771.53;;;8.21;100.00
44144;BME280;71749;51.920;4.492;2024-02-26T01:45:38;66789.53;;;8.40;100.00
44144;BME280;71749;51.920;4.492;2024-02-26T01:48:23;66767.81;;;8.20;100.00
44144;BME280;71749;51.920;4.492;2024-02-26T01:51:10;66717.72;;;7.74;100.00
44144;BME280;71749;51.920;4.492;2024-02-26T01:53:57;66737.00;;;7.90;100.00
44144;BME280;71749;51.920;4.492;2024-02-26T01:56:43;66763.88;;;8.16;100.00
44144;BME280;71749;51.920;4.492;2024-02-26T01:59:28;66765.41;;;8.15;100.00
44144;BME280;71749;51.920;4.492;2024-02-26T02:02:15;66758.34;;;8.11;100.00
44144;BME280;71749;51.920;4.492;2024-02-26T02:05:01;66793.97;;;8.44;100.00
44144;BME280;71749;51.920;4.492;2024-02-26T02:07:47;66795.47;;;8.43;99.86
44144;BME280;71749;51.920;4.492;2024-02-26T02:10:34;66777.81;;;8.29;100.00
44144;BME280;71749;51.920;4.492;2024-02-26T02:13:20;66801.59;;;8.48;99.55
44144;BME280;71749;51.920;4.492;2024-02-26T02:16:06;66792.31;;;8.42;99.72
44144;BME280;71749;51.920;4.492;2024-02-26T02:18:51;66752.59;;;8.04;100.00
44144;BME280;71749;51.920;4.492;2024-02-26T02:21:37;66740.91;;;7.93;100.00
44144;BME280;71749;51.920;4.492;2024-02-26T02:24:22;66808.28;;;8.54;99.83
44144;BME280;71749;51.920;4.492;2024-02-26T02:27:07;66790.63;;;8.41;99.45
44144;BME280;71749;51.920;4.492;2024-02-26T02:29:52;66769.63;;;8.24;100.00
44144;BME280;71749;51.920;4.492;2024-02-26T02:32:39;66762.63;;;8.13;100.00
44144;BME280;71749;51.920;4.492;2024-02-26T02:35:29;66774.47;;;8.26;100.00
44144;BME280;71749;51.920;4.492;2024-02-26T02:38:14;66789.00;;;8.32;100.00
44144;BME280;71749;51.920;4.492;2024-02-26T02:40:59;66760.22;;;8.08;100.00
44144;BME280;71749;51.920;4.492;2024-02-26T02:43:45;66797.88;;;8.47;100.00
44144;BME280;71749;51.920;4.492;2024-02-26T02:46:30;66808.66;;;8.52;99.37
44144;BME280;71749;51.920;4.492;2024-02-26T02:49:18;66787.53;;;8.33;99.71
44144;BME280;71749;51.920;4.492;2024-02-26T02:52:04;66782.84;;;8.34;99.98
44144;BME280;71749;51.920;4.492;2024-02-26T02:54:50;66767.25;;;8.19;99.97
44144;BME280;71749;51.920;4.492;2024-02-26T02:57:35;66795.28;;;8.40;100.00
44144;BME280;71749;51.920;4.492;2024-02-26T03:00:26;66764.44;;;8.17;100.00
44144;BME280;71749;51.920;4.492;2024-02-26T03:03:12;66749.44;;;8.03;100.00
44144;BME280;71749;51.920;4.492;2024-02-26T03:05:57;66750.38;;;8.02;100.00
44144;BME280;71749;51.920;4.492;2024-02-26T03:08:43;66713.25;;;7.70;100.00
44144;BME280;71749;51.920;4.492;2024-02-26T03:11:28;66726.44;;;7.80;100.00
44144;BME280;71749;51.920;4.492;2024-02-26T03:14:14;66723.09;;;7.77;100.00
44144;BME280;71749;51.920;4.492;2024-02-26T03:16:59;66704.19;;;7.60;100.00
44144;BME280;71749;51.920;4.492;2024-02-26T03:19:44;66695.28;;;7.52;100.00
44144;BME280;71749;51.920;4.492;2024-02-26T03:22:39;66719.22;;;7.73;100.00
44144;BME280;71749;51.920;4.492;2024-02-26T03:25:25;66715.16;;;7.67;100.00
44144;BME280;71749;51.920;4.492;2024-02-26T03:28:10;66734.78;;;7.88;100.00
44144;BME280;71749;51.920;4.492;2024-02-26T03:30:56;66700.84;;;7.57;100.00
44144;BME280;71749;51.920;4.492;2024-02-26T03:33:41;66704.75;;;7.60;100.00
44144;BME280;71749;51.920;4.492;2024-02-26T03:36:27;66670.25;;;7.29;100.00
44144;BME280;71749;51.920;4.492;2024-02-26T03:39:13;66685.50;;;7.38;100.00
44144;BME280;71749;51.920;4.492;2024-02-26T03:41:58;66706.59;;;7.64;100.00
44144;BME280;71749;51.920;4.492;2024-02-26T03:44:44;66710.88;;;7.66;100.00
44144;BME280;71749;51.920;4.492;2024-02-26T03:47:30;66707.13;;;7.65;100.00
44144;BME280;71749;51.920;4.492;2024-02-26T03:50:15;66702.50;;;7.58;100.00
44144;BME280;71749;51.920;4.492;2024-02-26T03:53:01;66719.59;;;7.71;100.00
44144;BME280;71749;51.920;4.492;2024-02-26T03:55:48;66727.72;;;7.84;100.00
44144;BME280;71749;51.920;4.492;2024-02-26T03:58:34;66750.38;;;8.02;100.00
44144;BME280;71749;51.920;4.492;2024-02-26T04:01:19;66733.28;;;7.89;100.00
44144;BME280;71749;51.920;4.492;2024-02-26T04:04:05;66770.22;;;8.17;100.00
44144;BME280;71749;51.920;4.492;2024-02-26T04:06:51;66717.34;;;7.69;100.00
44144;BME280;71749;51.920;4.492;2024-02-26T04:09:37;66709.19;;;7.64;100.00
44144;BME280;71749;51.920;4.492;2024-02-26T04:12:23;66751.66;;;8.05;100.00
44144;BME280;71749;51.920;4.492;2024-02-26T04:15:09;66747.03;;;7.99;100.00
44144;BME280;71749;51.920;4.492;2024-02-26T04:17:54;66761.91;;;8.10;100.00
44144;BME280;71749;51.920;4.492;2024-02-26T04:20:40;66750.75;;;8.00;100.00
44144;BME280;71749;51.920;4.492;2024-02-26T04:23:27;66765.19;;;8.20;100.00
44144;BME280;71749;51.920;4.492;2024-02-26T04:26:12;66720.72;;;7.72;100.00
44144;BME280;71749;51.920;4.492;2024-02-26T04:28:58;66769.28;;;8.19;100.00
44144;BME280;71749;51.920;4.492;2024-02-26T04:31:43;66776.72;;;8.28;100.00
44144;BME280;71749;51.920;4.492;2024-02-26T04:34:31;66779.31;;;8.28;100.00
44144;BME280;71749;51.920;4.492;2024-02-26T04:37:16;66780.06;;;8.31;100.00
44144;BME280;71749;51.920;4.492;2024-02-26T04:40:02;66766.91;;;8.14;100.00
44144;BME280;71749;51.920;4.492;2024-02-26T04:42:48;66806.78;;;8.55;100.00
44144;BME280;71749;51.920;4.492;2024-02-26T04:45:33;66777.09;;;8.26;100.00
44144;BME280;71749;51.920;4.492;2024-02-26T04:48:18;66729.97;;;7.86;100.00
44144;BME280;71749;51.920;4.492;2024-02-26T04:51:04;66724.22;;;7.78;100.00
44144;BME280;71749;51.920;4.492;2024-02-26T04:53:50;66740.91;;;7.93;100.00
44144;BME280;71749;51.920;4.492;2024-02-26T04:56:35;66755.94;;;8.07;100.00
44144;BME280;71749;51.920;4.492;2024-02-26T04:59:21;66730.34;;;7.84;100.00
44144;BME280;71749;51.920;4.492;2024-02-26T05:02:06;66737.56;;;7.90;100.00
44144;BME280;71749;51.920;4.492;2024-02-26T05:04:53;66721.81;;;7.73;100.00
44144;BME280;71749;51.920;4.492;2024-02-26T05:07:41;66751.66;;;8.05;100.00
44144;BME280;71749;51.920;4.492;2024-02-26T05:10:27;66707.13;;;7.65;100.00
44144;BME280;71749;51.920;4.492;2024-02-26T05:13:13;66710.13;;;7.63;100.00
44144;BME280;71749;51.920;4.492;2024-02-26T05:16:00;66732.19;;;7.88;100.00
44144;BME280;71749;51.920;4.492;2024-02-26T05:18:45;66740.75;;;7.91;100.00
44144;BME280;71749;51.920;4.492;2024-02-26T05:21:31;66735.91;;;7.89;100.00
44144;BME280;71749;51.920;4.492;2024-02-26T05:24:17;66767.06;;;8.17;100.00
44144;BME280;71749;51.920;4.492;2024-02-26T05:27:04;66760.78;;;8.09;100.00
44144;BME280;71749;51.920;4.492;2024-02-26T05:29:49;66787.53;;;8.33;100.00
44144;BME280;71749;51.920;4.492;2024-02-26T05:32:37;66781.94;;;8.28;100.00
44144;BME280;71749;51.920;4.492;2024-02-26T05:35:22;66743.47;;;8.00;100.00
44144;BME280;71749;51.920;4.492;2024-02-26T05:38:08;66777.81;;;8.29;100.00
44144;BME280;71749;51.920;4.492;2024-02-26T05:40:53;66774.13;;;8.21;100.00
44144;BME280;71749;51.920;4.492;2024-02-26T05:43:39;66753.31;;;8.07;100.00
44144;BME280;71749;51.920;4.492;2024-02-26T05:46:25;66778.38;;;8.30;100.00
44144;BME280;71749;51.920;4.492;2024-02-26T05:49:12;66756.50;;;8.07;100.00
44144;BME280;71749;51.920;4.492;2024-02-26T05:51:57;66766.69;;;8.19;100.00
44144;BME280;71749;51.920;4.492;2024-02-26T05:54:46;66765.22;;;8.13;100.00
44144;BME280;71749;51.920;4.492;2024-02-26T05:57:32;66765.97;;;8.16;100.00
44144;BME280;71749;51.920;4.492;2024-02-26T06:00:18;66759.28;;;8.10;100.00
44144;BME280;71749;51.920;4.492;2024-02-26T06:03:04;66747.41;;;7.97;100.00
44144;BME280;71749;51.920;4.492;2024-02-26T06:05:49;66742.56;;;7.95;100.00
44144;BME280;71749;51.920;4.492;2024-02-26T06:08:35;66732.38;;;7.83;100.00
44144;BME280;71749;51.920;4.492;2024-02-26T06:11:20;66736.47;;;7.89;100.00
44144;BME280;71749;51.920;4.492;2024-02-26T06:14:08;66739.97;;;7.95;100.00
44144;BME280;71749;51.920;4.492;2024-02-26T06:16:53;66749.09;;;7.98;100.00
44144;BME280;71749;51.920;4.492;2024-02-26T06:19:39;66746.28;;;8.03;100.00
44144;BME280;71749;51.920;4.492;2024-02-26T06:22:25;66760.94;;;8.11;100.00
44144;BME280;71749;51.920;4.492;2024-02-26T06:25:10;66755.56;;;8.09;100.00
44144;BME280;71749;51.920;4.492;2024-02-26T06:27:56;66700.47;;;7.59;100.00
44144;BME280;71749;51.920;4.492;2024-02-26T06:30:41;66728.84;;;7.85;100.00
44144;BME280;71749;51.920;4.492;2024-02-26T06:33:27;66733.31;;;7.82;100.00
44144;BME280;71749;51.920;4.492;2024-02-26T06:36:13;66763.38;;;8.09;100.00
44144;BME280;71749;51.920;4.492;2024-02-26T06:38:58;66700.31;;;7.56;100.00
44144;BME280;71749;51.920;4.492;2024-02-26T06:41:43;66730.56;;;7.79;100.00
44144;BME280;71749;51.920;4.492;2024-02-26T06:44:28;66750.53;;;8.04;100.00
44144;BME280;71749;51.920;4.492;2024-02-26T06:47:19;66760.94;;;8.11;100.00
44144;BME280;71749;51.920;4.492;2024-02-26T06:50:05;66740.34;;;7.93;100.00
44144;BME280;71749;51.920;4.492;2024-02-26T06:52:51;66735.53;;;7.91;100.00
44144;BME280;71749;51.920;4.492;2024-02-26T06:55:36;66739.97;;;7.95;100.00
44144;BME280;71749;51.920;4.492;2024-02-26T06:58:25;66753.16;;;8.04;100.00
44144;BME280;71749;51.920;4.492;2024-02-26T07:01:12;66713.09;;;7.68;100.00
44144;BME280;71749;51.920;4.492;2024-02-26T07:04:01;66721.25;;;7.73;100.00
44144;BME280;71749;51.920;4.492;2024-02-26T07:06:47;66707.31;;;7.67;100.00
44144;BME280;71749;51.920;4.492;2024-02-26T07:09:33;66760.78;;;8.09;100.00
44144;BME280;71749;51.920;4.492;2024-02-26T07:12:18;66713.81;;;7.71;100.00
44144;BME280;71749;51.920;4.492;2024-02-26T07:15:05;66701.19;;;7.62;100.00
44144;BME280;71749;51.920;4.492;2024-02-26T07:17:55;66709.75;;;7.65;100.00
44144;BME280;71749;51.920;4.492;2024-02-26T07:20:41;66707.13;;;7.65;100.00
44144;BME280;71749;51.920;4.492;2024-02-26T07:23:26;66721.81;;;7.73;100.00
44144;BME280;71749;51.920;4.492;2024-02-26T07:26:11;66710.50;;;7.68;100.00
44144;BME280;71749;51.920;4.492;2024-02-26T07:28:57;66727.94;;;7.79;100.00
44144;BME280;71749;51.920;4.492;2024-02-26T07:31:45;66722.88;;;7.82;100.00
44144;BME280;71749;51.920;4.492;2024-02-26T07:34:31;66725.88;;;7.79;100.00
44144;BME280;71749;51.920;4.492;2024-02-26T07:37:16;66721.59;;;7.78;100.00
44144;BME280;71749;51.920;4.492;2024-02-26T07:40:01;66749.09;;;7.98;100.00
44144;BME280;71749;51.920;4.492;2024-02-26T07:42:48;66738.28;;;7.93;100.00
44144;BME280;71749;51.920;4.492;2024-02-26T07:45:33;66725.72;;;7.77;100.00
44144;BME280;71749;51.920;4.492;2024-02-26T07:48:20;66724.03;;;7.75;100.00
44144;BME280;71749;51.920;4.492;2024-02-26T07:51:06;66695.50;;;7.47;100.00
44144;BME280;71749;51.920;4.492;2024-02-26T07:53:51;66701.03;;;7.59;100.00
44144;BME280;71749;51.920;4.492;2024-02-26T07:56:38;66738.13;;;7.91;100.00
44144;BME280;71749;51.920;4.492;2024-02-26T07:59:23;66739.25;;;7.92;100.00
44144;BME280;71749;51.920;4.492;2024-02-26T08:02:09;66711.38;;;7.73;100.00
44144;BME280;71749;51.920;4.492;2024-02-26T08:04:54;66672.09;;;7.33;100.00
44144;BME280;71749;51.920;4.492;2024-02-26T08:07:39;66708.06;;;7.63;100.00
44144;BME280;71749;51.920;4.492;2024-02-26T08:10:25;66711.41;;;7.66;100.00
44144;BME280;71749;51.920;4.492;2024-02-26T08:13:13;66702.34;;;7.56;100.00
44144;BME280;71749;51.920;4.492;2024-02-26T08:15:59;66729.06;;;7.80;100.00
44144;BME280;71749;51.920;4.492;2024-02-26T08:18:44;66704.00;;;7.57;100.00
44144;BME280;71749;51.920;4.492;2024-02-26T08:21:30;66714.38;;;7.71;100.00
44144;BME280;71749;51.920;4.492;2024-02-26T08:24:16;66723.66;;;7.77;100.00
44144;BME280;71749;51.920;4.492;2024-02-26T08:27:01;66699.19;;;7.55;100.00
44144;BME280;71749;51.920;4.492;2024-02-26T08:29:47;66701.22;;;7.55;100.00
44144;BME280;71749;51.920;4.492;2024-02-26T08:32:32;66682.47;;;7.40;100.00
44144;BME280;71749;51.920;4.492;2024-02-26T08:35:19;66642.63;;;7.06;100.00
44144;BME280;71749;51.920;4.492;2024-02-26T08:38:04;66671.00;;;7.32;100.00
44144;BME280;71749;51.920;4.492;2024-02-26T08:40:50;66662.66;;;7.24;100.00
44144;BME280;71749;51.920;4.492;2024-02-26T08:43:35;66670.44;;;7.31;100.00
44144;BME280;71749;51.920;4.492;2024-02-26T08:46:21;66670.81;;;7.29;100.00
44144;BME280;71749;51.920;4.492;2024-02-26T08:49:06;66677.09;;;7.37;100.00
44144;BME280;71749;51.920;4.492;2024-02-26T08:51:52;66685.50;;;7.38;100.00
44144;BME280;71749;51.920;4.492;2024-02-26T08:54:37;66669.31;;;7.30;100.00
44144;BME280;71749;51.920;4.492;2024-02-26T08:57:22;66668.56;;;7.27;100.00
44144;BME280;71749;51.920;4.492;2024-02-26T09:00:09;66671.56;;;7.32;100.00
44144;BME280;71749;51.920;4.492;2024-02-26T09:02:54;66696.56;;;7.55;100.00
44144;BME280;71749;51.920;4.492;2024-02-26T09:05:39;66697.50;;;7.54;100.00
44144;BME280;71749;51.920;4.492;2024-02-26T09:08:24;66636.50;;;7.01;100.00
44144;BME280;71749;51.920;4.492;2024-02-26T09:11:12;66677.09;;;7.37;100.00
44144;BME280;71749;51.920;4.492;2024-02-26T09:13:58;66660.97;;;7.23;100.00
44144;BME280;71749;51.920;4.492;2024-02-26T09:16:43;66644.66;;;7.06;100.00
44144;BME280;71749;51.920;4.492;2024-02-26T09:19:29;66643.91;;;7.10;100.00
44144;BME280;71749;51.920;4.492;2024-02-26T09:22:14;66652.47;;;7.13;100.00
44144;BME280;71749;51.920;4.492;2024-02-26T09:25:04;66655.78;;;7.16;100.00
44144;BME280;71749;51.920;4.492;2024-02-26T09:27:50;66652.47;;;7.13;100.00
44144;BME280;71749;51.920;4.492;2024-02-26T09:30:41;66640.94;;;7.05;100.00
44144;BME280;71749;51.920;4.492;2024-02-26T09:33:27;66649.28;;;7.12;100.00
44144;BME280;71749;51.920;4.492;2024-02-26T09:36:12;66663.97;;;7.21;100.00
44144;BME280;71749;51.920;4.492;2024-02-26T09:38:59;66705.31;;;7.61;100.00
44144;BME280;71749;51.920;4.492;2024-02-26T09:41:46;66676.56;;;7.37;100.00
44144;BME280;71749;51.920;4.492;2024-02-26T09:44:33;66708.81;;;7.66;100.00
44144;BME280;71749;51.920;4.492;2024-02-26T09:47:25;66682.31;;;7.37;100.00
44144;BME280;71749;51.920;4.492;2024-02-26T09:50:13;66693.63;;;7.50;100.00
44144;BME280;71749;51.920;4.492;2024-02-26T09:53:00;66709.19;;;7.64;100.00
44144;BME280;71749;51.920;4.492;2024-02-26T09:55:48;66719.03;;;7.71;100.00
44144;BME280;71749;51.920;4.492;2024-02-26T09:58:34;66712.13;;;7.69;100.00
44144;BME280;71749;51.920;4.492;2024-02-26T10:01:20;66704.00;;;7.57;100.00
44144;BME280;71749;51.920;4.492;2024-02-26T10:04:05;66685.44;;;7.45;100.00
44144;BME280;71749;51.920;4.492;2024-02-26T10:06:52;66720.34;;;7.74;100.00
44144;BME280;71749;51.920;4.492;2024-02-26T10:09:38;66709.97;;;7.60;100.00
44144;BME280;71749;51.920;4.492;2024-02-26T10:12:24;66723.09;;;7.77;100.00
44144;BME280;71749;51.920;4.492;2024-02-26T10:15:13;66726.63;;;7.83;100.00
44144;BME280;71749;51.920;4.492;2024-02-26T10:17:58;66763.00;;;8.11;100.00
44144;BME280;71749;51.920;4.492;2024-02-26T10:21:01;66720.50;;;7.77;100.00
44144;BME280;71749;51.920;4.492;2024-02-26T10:23:48;66730.16;;;7.81;100.00
44144;BME280;71749;51.920;4.492;2024-02-26T10:26:34;66715.88;;;7.70;100.00
44144;BME280;71749;51.920;4.492;2024-02-26T10:29:20;66713.66;;;7.68;100.00
44144;BME280;71749;51.920;4.492;2024-02-26T10:32:06;66713.25;;;7.70;100.00
44144;BME280;71749;51.920;4.492;2024-02-26T10:34:55;66724.38;;;7.80;100.00
44144;BME280;71749;51.920;4.492;2024-02-26T10:37:41;66717.75;;;7.67;100.00
44144;BME280;71749;51.920;4.492;2024-02-26T10:40:27;66681.56;;;7.42;100.00
44144;BME280;71749;51.920;4.492;2024-02-26T10:43:12;66674.16;;;7.32;100.00
44144;BME280;71749;51.920;4.492;2024-02-26T10:45:59;66652.81;;;7.18;100.00
44144;BME280;71749;51.920;4.492;2024-02-26T10:48:50;66685.06;;;7.47;100.00
44144;BME280;71749;51.920;4.492;2024-02-26T10:51:37;66712.53;;;7.67;100.00
44144;BME280;71749;51.920;4.492;2024-02-26T10:54:26;66679.16;;;7.37;100.00
44144;BME280;71749;51.920;4.492;2024-02-26T10:57:15;66712.53;;;7.67;100.00
44144;BME280;71749;51.920;4.492;2024-02-26T11:00:01;66706.59;;;7.64;100.00
44144;BME280;71749;51.920;4.492;2024-02-26T11:02:50;66721.09;;;7.70;100.00
44144;BME280;71749;51.920;4.492;2024-02-26T11:05:36;66715.88;;;7.70;100.00
44144;BME280;71749;51.920;4.492;2024-02-26T11:08:23;66722.72;;;7.79;100.00
44144;BME280;71749;51.920;4.492;2024-02-26T11:11:10;66728.84;;;7.85;100.00
44144;BME280;71749;51.920;4.492;2024-02-26T11:14:01;66743.13;;;7.95;100.00
44144;BME280;71749;51.920;4.492;2024-02-26T11:16:49;66718.09;;;7.72;100.00
44144;BME280;71749;51.920;4.492;2024-02-26T11:19:36;66721.97;;;7.76;100.00
44144;BME280;71749;51.920;4.492;2024-02-26T11:22:24;66744.81;;;7.97;100.00
44144;BME280;71749;51.920;4.492;2024-02-26T11:25:11;66746.31;;;7.96;100.00
44144;BME280;71749;51.920;4.492;2024-02-26T11:28:02;66694.34;;;7.53;100.00
44144;BME280;71749;51.920;4.492;2024-02-26T11:30:49;66672.84;;;7.29;100.00
44144;BME280;71749;51.920;4.492;2024-02-26T11:33:35;66677.47;;;7.35;100.00
44144;BME280;71749;51.920;4.492;2024-02-26T11:36:23;66674.88;;;7.35;100.00
44144;BME280;71749;51.920;4.492;2024-02-26T11:39:11;66680.28;;;7.38;100.00
44144;BME280;71749;51.920;4.492;2024-02-26T11:42:05;66649.50;;;7.08;100.00
44144;BME280;71749;51.920;4.492;2024-02-26T11:44:51;66636.16;;;6.95;100.00
44144;BME280;71749;51.920;4.492;2024-02-26T11:47:37;66638.00;;;7.00;100.00
44144;BME280;71749;51.920;4.492;2024-02-26T11:50:42;66682.66;;;7.43;100.00
44144;BME280;71749;51.920;4.492;2024-02-26T11:53:30;66678.41;;;7.34;100.00
44144;BME280;71749;51.920;4.492;2024-02-26T11:59:09;66688.78;;;7.48;100.00
44144;BME280;71749;51.920;4.492;2024-02-26T12:01:55;66678.59;;;7.36;100.00
44144;BME280;71749;51.920;4.492;2024-02-26T12:04:44;66644.31;;;7.08;100.00
44144;BME280;71749;51.920;4.492;2024-02-26T12:07:29;66675.09;;;7.31;100.00
44144;BME280;71749;51.920;4.492;2024-02-26T12:10:17;66674.69;;;7.33;100.00
44144;BME280;71749;51.920;4.492;2024-02-26T12:18:39;66715.50;;;7.72;100.00
44144;BME280;71749;51.920;4.492;2024-02-26T12:21:26;66734.41;;;7.90;100.00
44144;BME280;71749;51.920;4.492;2024-02-26T12:24:13;66722.72;;;7.79;100.00
44144;BME280;71749;51.920;4.492;2024-02-26T12:26:58;66696.19;;;7.57;100.00
44144;BME280;71749;51.920;4.492;2024-02-26T12:29:43;66716.25;;;7.68;100.00
44144;BME280;71749;51.920;4.492;2024-02-26T12:32:29;66707.69;;;7.65;100.00
44144;BME280;71749;51.920;4.492;2024-02-26T12:35:16;66714.38;;;7.71;100.00
44144;BME280;71749;51.920;4.492;2024-02-26T12:38:04;66692.13;;;7.51;100.00
44144;BME280;71749;51.920;4.492;2024-02-26T12:40:50;66679.53;;;7.35;100.00
44144;BME280;71749;51.920;4.492;2024-02-26T12:43:36;66679.31;;;7.39;100.00
44144;BME280;71749;51.920;4.492;2024-02-26T12:46:21;66692.13;;;7.51;100.00
44144;BME280;71749;51.920;4.492;2024-02-26T12:49:06;66706.59;;;7.64;100.00
44144;BME280;71749;51.920;4.492;2024-02-26T12:51:52;66701.41;;;7.57;100.00
44144;BME280;71749;51.920;4.492;2024-02-26T12:54:38;66720.34;;;7.74;100.00
44144;BME280;71749;51.920;4.492;2024-02-26T12:57:24;66748.13;;;8.00;100.00
44144;BME280;71749;51.920;4.492;2024-02-26T13:00:16;66720.34;;;7.74;100.00
44144;BME280;71749;51.920;4.492;2024-02-26T13:03:02;66696.78;;;7.51;100.00
44144;BME280;71749;51.920;4.492;2024-02-26T13:05:47;66730.72;;;7.82;100.00
44144;BME280;71749;51.920;4.492;2024-02-26T13:08:33;66741.09;;;7.96;100.00
44144;BME280;71749;51.920;4.492;2024-02-26T13:11:18;66750.00;;;8.04;100.00
44144;BME280;71749;51.920;4.492;2024-02-26T13:14:04;66785.47;;;8.34;100.00
44144;BME280;71749;51.920;4.492;2024-02-26T13:16:57;66774.84;;;8.24;100.00
44144;BME280;71749;51.920;4.492;2024-02-26T13:19:49;66767.81;;;8.20;100.00
44144;BME280;71749;51.920;4.492;2024-02-26T13:22:36;66761.91;;;8.10;100.00
44144;BME280;71749;51.920;4.492;2024-02-26T13:25:21;66780.06;;;8.31;100.00
44144;BME280;71749;51.920;4.492;2024-02-26T13:28:09;66746.09;;;8.00;100.00
44144;BME280;71749;51.920;4.492;2024-02-26T13:30:55;66779.31;;;8.28;100.00
44144;BME280;71749;51.920;4.492;2024-02-26T13:33:46;66758.16;;;8.09;100.00
44144;BME280;71749;51.920;4.492;2024-02-26T13:36:31;66754.44;;;8.08;100.00
44144;BME280;71749;51.920;4.492;2024-02-26T13:39:26;66760.00;;;8.13;100.00
44144;BME280;71749;51.920;4.492;2024-02-26T13:42:12;66757.22;;;8.10;100.00
44144;BME280;71749;51.920;4.492;2024-02-26T13:44:57;66758.72;;;8.09;100.00
44144;BME280;71749;51.920;4.492;2024-02-26T13:47:43;66772.81;;;8.25;100.00
44144;BME280;71749;51.920;4.492;2024-02-26T13:50:29;66732.19;;;7.80;100.00
44144;BME280;71749;51.920;4.492;2024-02-26T13:53:14;66752.22;;;8.06;100.00
44144;BME280;71749;51.920;4.492;2024-02-26T13:56:00;66763.72;;;8.14;100.00
44144;BME280;71749;51.920;4.492;2024-02-26T13:58:46;66801.59;;;8.48;100.00
44144;BME280;71749;51.920;4.492;2024-02-26T14:01:31;66804.56;;;8.53;100.00
44144;BME280;71749;51.920;4.492;2024-02-26T14:04:18;66798.44;;;8.48;100.00
44144;BME280;71749;51.920;4.492;2024-02-26T14:07:04;66819.03;;;8.67;100.00
44144;BME280;71749;51.920;4.492;2024-02-26T14:09:50;66803.44;;;8.52;100.00
44144;BME280;71749;51.920;4.492;2024-02-26T14:12:37;66829.44;;;8.74;100.00
44144;BME280;71749;51.920;4.492;2024-02-26T14:15:22;66809.56;;;8.58;100.00
44144;BME280;71749;51.920;4.492;2024-02-26T14:18:09;66790.84;;;8.36;100.00
44144;BME280;71749;51.920;4.492;2024-02-26T14:20:57;66807.34;;;8.56;100.00
44144;BME280;71749;51.920;4.492;2024-02-26T14:23:42;66831.28;;;8.78;100.00
44144;BME280;71749;51.920;4.492;2024-02-26T14:26:29;66819.81;;;8.63;100.00
44144;BME280;71749;51.920;4.492;2024-02-26T14:29:15;66787.13;;;8.35;100.00
44144;BME280;71749;51.920;4.492;2024-02-26T14:32:01;66787.13;;;8.35;100.00
44144;BME280;71749;51.920;4.492;2024-02-26T14:34:47;66807.16;;;8.53;100.00
44144;BME280;71749;51.920;4.492;2024-02-26T14:37:32;66838.19;;;8.79;100.00
44144;BME280;71749;51.920;4.492;2024-02-26T14:40:18;66804.00;;;8.53;100.00
44144;BME280;71749;51.920;4.492;2024-02-26T14:43:04;66813.13;;;8.56;100.00
44144;BME280;71749;51.920;4.492;2024-02-26T14:45:50;66832.06;;;8.74;100.00
44144;BME280;71749;51.920;4.492;2024-02-26T14:48:35;66830.56;;;8.75;100.00